Time;durP1;ratioP1;P1;durP2;ratioP2;P2;SDS_P1;SDS_P2;PMS_P1;PMS_P2;Temp;Humidity;BMP_temperature;BMP_pressure;BME280_temperature;BME280_humidity;BME280_pressure;Samples;Min_cycle;Max_cycle;Signal;HPM_P1;HPM_P2
2021/10/17 00:00:07;;;;;;;;;31.67;29.00;;;;;;;;5119712;27;8790;-79
2021/10/17 00:02:32;;;;;;;;;31.00;30.67;;;;;;;;5119413;27;9443;-79
2021/10/17 00:04:57;;;;;;;;;28.00;24.67;;;;;;;;5118108;28;9283;-79
2021/10/17 00:07:22;;;;;;;;;29.33;27.67;;;;;;;;5119425;27;8799;-75
2021/10/17 00:09:48;;;;;;;;;25.00;25.00;;;;;;;;5119693;27;8779;-75
2021/10/17 00:12:13;;;;;;;;;30.00;27.33;;;;;;;;5118162;28;9477;-75
2021/10/17 00:14:39;;;;;;;;;28.67;28.33;;;;;;;;5119007;27;8842;-76
2021/10/17 00:17:05;;;;;;;;;32.33;29.00;;;;;;;;5117938;28;8815;-76
2021/10/17 00:19:30;;;;;;;;;29.33;28.00;;;;;;;;5119150;27;8893;-75
2021/10/17 00:21:55;;;;;;;;;35.50;32.50;;;;;;;;5119203;27;8803;-75
2021/10/17 00:24:21;;;;;;;;;29.33;28.00;;;;;;;;5119328;27;8780;-79
2021/10/17 00:26:46;;;;;;;;;26.67;26.67;;;;;;;;5119167;27;8887;-79
2021/10/17 00:29:11;;;;;;;;;27.33;27.33;;;;;;;;5117751;28;8815;-79
2021/10/17 00:31:37;;;;;;;;;27.67;26.00;;;;;;;;5098700;27;8806;-80
2021/10/17 00:34:02;;;;;;;;;32.00;30.00;;;;;;;;5098630;28;8781;-79
2021/10/17 00:36:32;;;;;;;;;32.00;26.33;;;;;;;;5097036;28;8832;-76
2021/10/17 00:39:04;;;;;;;;;32.00;28.33;;;;;;;;5097132;28;8770;-75
2021/10/17 00:41:58;;;;;;;;;23.00;21.00;;;;;;;;5097915;28;9630;-76
2021/10/17 00:44:31;;;;;;;;;28.67;23.67;;;;;;;;5096233;28;9486;-76
2021/10/17 00:47:07;;;;;;;;;25.67;25.00;;;;;;;;5098187;28;10157;-75
2021/10/17 00:49:32;;;;;;;;;23.00;23.00;;;;;;;;5096950;28;9370;-75
2021/10/17 00:52:03;;;;;;;;;29.33;27.67;;;;;;;;5096615;28;8833;-75
2021/10/17 00:54:29;;;;;;;;;21.33;19.00;;;;;;;;5097125;28;8809;-79
2021/10/17 00:56:54;;;;;;;;;27.75;26.25;;;;;;;;5096899;28;9503;-79
2021/10/17 00:59:23;;;;;;;;;25.67;25.33;;;;;;;;5096803;28;8848;-79
2021/10/17 01:01:49;;;;;;;;;28.33;27.67;;;;;;;;5096695;28;8808;-79
2021/10/17 01:04:32;;;;;;;;;34.75;31.25;;;;;;;;5097889;28;9396;-79
2021/10/17 01:06:57;;;;;;;;;34.50;30.50;;;;;;;;5079842;28;9513;-75
2021/10/17 01:09:22;;;;;;;;;30.00;30.00;;;;;;;;5098086;28;9628;-75
2021/10/17 01:11:48;;;;;;;;;31.75;28.50;;;;;;;;5098097;28;8902;-76
2021/10/17 01:14:17;;;;;;;;;30.75;27.75;;;;;;;;5097975;28;8882;-75
2021/10/17 01:16:42;;;;;;;;;31.50;28.50;;;;;;;;5097834;28;8774;-76
2021/10/17 01:19:07;;;;;;;;;30.33;27.33;;;;;;;;5096433;28;9769;-76
2021/10/17 01:21:33;;;;;;;;;26.67;23.67;;;;;;;;5097827;28;8805;-75
2021/10/17 01:23:58;;;;;;;;;21.67;16.33;;;;;;;;5097973;28;8813;-79
2021/10/17 01:26:29;;;;;;;;;27.00;27.00;;;;;;;;5096437;28;8818;-79
2021/10/17 01:29:01;;;;;;;;;26.50;26.50;;;;;;;;5096310;28;9692;-79
2021/10/17 01:31:53;;;;;;;;;20.67;20.00;;;;;;;;5113370;28;9483;-79
2021/10/17 01:34:19;;;;;;;;;26.67;22.67;;;;;;;;5113431;28;9393;-78
2021/10/17 01:36:45;;;;;;;;;28.33;25.67;;;;;;;;5116586;28;9482;-76
2021/10/17 01:39:11;;;;;;;;;29.25;27.25;;;;;;;;5116653;28;8819;-76
2021/10/17 01:41:36;;;;;;;;;34.25;32.00;;;;;;;;5117260;27;8802;-76
2021/10/17 01:44:06;;;;;;;;;29.33;29.33;;;;;;;;5116477;28;9738;-76
2021/10/17 01:46:32;;;;;;;;;33.25;31.25;;;;;;;;5117808;27;8799;-76
2021/10/17 01:48:57;;;;;;;;;31.67;27.00;;;;;;;;5117909;27;9755;-75
2021/10/17 01:51:22;;;;;;;;;30.00;28.00;;;;;;;;5117522;27;8935;-76
2021/10/17 01:53:47;;;;;;;;;30.33;27.67;;;;;;;;5117864;28;8897;-79
2021/10/17 01:56:13;;;;;;;;;30.00;30.00;;;;;;;;5117883;27;8799;-79
2021/10/17 01:58:38;;;;;;;;;27.75;27.75;;;;;;;;5117720;27;8787;-79
2021/10/17 02:01:03;;;;;;;;;31.00;26.67;;;;;;;;5117489;27;8803;-79
2021/10/17 02:03:29;;;;;;;;;31.67;30.33;;;;;;;;5116330;28;8807;-80
2021/10/17 02:05:54;;;;;;;;;28.67;26.67;;;;;;;;5117567;27;8787;-79
2021/10/17 02:08:19;;;;;;;;;30.00;28.00;;;;;;;;5116136;28;8849;-76
2021/10/17 02:10:44;;;;;;;;;25.33;25.00;;;;;;;;5117597;27;8822;-76
2021/10/17 02:13:10;;;;;;;;;28.67;25.67;;;;;;;;5115916;28;9627;-75
2021/10/17 02:15:35;;;;;;;;;30.00;26.00;;;;;;;;5117431;27;8807;-76
2021/10/17 02:18:00;;;;;;;;;22.00;22.00;;;;;;;;5117604;27;8791;-75
2021/10/17 02:20:26;;;;;;;;;25.00;23.33;;;;;;;;5117562;27;8892;-75
2021/10/17 02:22:51;;;;;;;;;26.00;22.33;;;;;;;;5117428;27;8866;-79
2021/10/17 02:25:16;;;;;;;;;24.67;24.33;;;;;;;;5115949;28;8906;-79
2021/10/17 02:27:41;;;;;;;;;22.33;21.00;;;;;;;;5115913;28;8825;-79
2021/10/17 02:30:07;;;;;;;;;24.33;24.33;;;;;;;;5110097;27;8833;-79
2021/10/17 02:32:35;;;;;;;;;24.67;21.00;;;;;;;;5096563;28;8801;-78
2021/10/17 02:35:01;;;;;;;;;27.67;27.00;;;;;;;;5096871;28;8770;-80
2021/10/17 02:37:30;;;;;;;;;24.25;23.50;;;;;;;;5096709;28;9489;-77
2021/10/17 02:39:55;;;;;;;;;25.67;24.00;;;;;;;;5096824;28;8986;-76
2021/10/17 02:42:20;;;;;;;;;27.33;25.00;;;;;;;;5096702;28;9497;-76
2021/10/17 02:44:46;;;;;;;;;26.00;23.33;;;;;;;;5096812;28;8782;-75
2021/10/17 02:47:11;;;;;;;;;27.00;23.67;;;;;;;;5096484;28;8789;-75
2021/10/17 02:49:36;;;;;;;;;23.67;23.67;;;;;;;;5095171;28;9568;-76
2021/10/17 02:52:01;;;;;;;;;28.00;25.33;;;;;;;;5094760;28;8827;-76
2021/10/17 02:54:26;;;;;;;;;28.75;26.75;;;;;;;;5095169;28;9670;-79
2021/10/17 02:56:52;;;;;;;;;22.67;22.00;;;;;;;;5096599;28;8781;-76
2021/10/17 02:59:17;;;;;;;;;23.00;22.00;;;;;;;;5096357;28;8778;-78
2021/10/17 03:01:42;;;;;;;;;25.50;24.50;;;;;;;;5096167;28;9552;-78
2021/10/17 03:04:07;;;;;;;;;24.67;22.00;;;;;;;;5096406;28;8797;-78
2021/10/17 03:06:33;;;;;;;;;24.67;24.67;;;;;;;;5096275;28;8876;-75
2021/10/17 03:08:58;;;;;;;;;28.50;23.25;;;;;;;;5096432;28;8856;-75
2021/10/17 03:11:23;;;;;;;;;27.00;22.33;;;;;;;;5096304;28;8798;-76
2021/10/17 03:13:48;;;;;;;;;25.33;25.33;;;;;;;;5094817;28;8829;-75
2021/10/17 03:16:14;;;;;;;;;29.00;24.67;;;;;;;;5094813;28;8823;-75
2021/10/17 03:18:39;;;;;;;;;31.00;29.67;;;;;;;;5096230;28;8805;-76
2021/10/17 03:21:04;;;;;;;;;26.25;26.25;;;;;;;;5094798;28;8831;-76
2021/10/17 03:23:29;;;;;;;;;23.33;22.00;;;;;;;;5094755;28;8813;-76
2021/10/17 03:25:56;;;;;;;;;30.00;25.67;;;;;;;;5096033;28;8806;-76
2021/10/17 03:28:21;;;;;;;;;24.67;24.00;;;;;;;;5096112;28;10295;-75
2021/10/17 03:30:46;;;;;;;;;26.33;26.00;;;;;;;;5107918;28;8835;-76
2021/10/17 03:33:11;;;;;;;;;27.25;25.25;;;;;;;;5116402;27;8818;-75
2021/10/17 03:35:37;;;;;;;;;28.75;28.50;;;;;;;;5115194;28;8843;-75
2021/10/17 03:38:02;;;;;;;;;29.00;28.50;;;;;;;;5116236;27;8795;-78
2021/10/17 03:40:27;;;;;;;;;24.50;24.50;;;;;;;;5116287;27;8868;-79
2021/10/17 03:42:52;;;;;;;;;28.00;27.50;;;;;;;;5097773;28;8913;-79
2021/10/17 03:45:18;;;;;;;;;25.67;23.67;;;;;;;;5116028;27;8799;-78
2021/10/17 03:47:43;;;;;;;;;28.25;26.75;;;;;;;;5116188;27;9225;-79
2021/10/17 03:50:09;;;;;;;;;25.00;22.00;;;;;;;;5115963;27;8799;-75
2021/10/17 03:52:35;;;;;;;;;28.67;26.33;;;;;;;;5114553;28;8825;-76
2021/10/17 03:55:00;;;;;;;;;31.67;28.67;;;;;;;;5116215;27;8896;-76
2021/10/17 03:57:25;;;;;;;;;26.67;25.33;;;;;;;;5116123;27;12293;-75
2021/10/17 03:59:50;;;;;;;;;26.00;24.67;;;;;;;;5116343;27;8902;-76
2021/10/17 04:02:15;;;;;;;;;28.00;26.67;;;;;;;;5114620;28;8962;-76
2021/10/17 04:04:41;;;;;;;;;27.00;25.33;;;;;;;;5116261;27;8787;-76
2021/10/17 04:07:07;;;;;;;;;22.67;22.67;;;;;;;;5119545;27;8892;-75
2021/10/17 04:09:32;;;;;;;;;29.67;24.00;;;;;;;;5119500;27;8913;-79
2021/10/17 04:12:01;;;;;;;;;25.67;22.67;;;;;;;;5117957;28;8839;-79
2021/10/17 04:14:29;;;;;;;;;29.50;26.50;;;;;;;;5116764;28;8806;-79
2021/10/17 04:17:06;;;;;;;;;33.00;29.67;;;;;;;;5117640;28;9671;-79
2021/10/17 04:19:34;;;;;;;;;31.50;30.50;;;;;;;;5118939;27;9574;-79
2021/10/17 04:22:16;;;;;;;;;30.75;29.75;;;;;;;;5118813;27;9583;-76
2021/10/17 04:24:53;;;;;;;;;26.67;24.67;;;;;;;;5117797;28;10499;-75
2021/10/17 04:27:19;;;;;;;;;27.00;25.33;;;;;;;;5117627;28;10365;-76
2021/10/17 04:29:54;;;;;;;;;29.00;25.00;;;;;;;;5113450;27;9495;-75
2021/10/17 04:32:20;;;;;;;;;30.25;28.50;;;;;;;;5098369;28;9647;-76
2021/10/17 04:34:45;;;;;;;;;30.00;26.33;;;;;;;;5098732;28;8892;-77
2021/10/17 04:37:10;;;;;;;;;29.00;26.33;;;;;;;;5098670;28;8806;-76
2021/10/17 04:39:36;;;;;;;;;25.67;24.67;;;;;;;;5098634;28;8848;-76
2021/10/17 04:42:05;;;;;;;;;28.25;26.75;;;;;;;;5098512;28;8805;-79
2021/10/17 04:44:31;;;;;;;;;29.25;27.25;;;;;;;;5096774;28;8979;-78
2021/10/17 04:46:57;;;;;;;;;37.75;34.00;;;;;;;;5096938;28;9817;-78
2021/10/17 04:49:26;;;;;;;;;30.25;28.25;;;;;;;;5096902;28;9974;-78
2021/10/17 04:52:13;;;;;;;;;27.00;27.00;;;;;;;;5096496;28;8810;-78
2021/10/17 04:54:51;;;;;;;;;30.00;27.50;;;;;;;;5096993;28;9483;-75
2021/10/17 04:57:27;;;;;;;;;25.00;23.00;;;;;;;;5096216;28;10497;-75
2021/10/17 04:59:55;;;;;;;;;24.67;22.33;;;;;;;;5096885;28;9552;-74
2021/10/17 05:02:20;;;;;;;;;25.33;25.33;;;;;;;;5096684;28;9526;-75
2021/10/17 05:04:47;;;;;;;;;26.00;25.67;;;;;;;;5096989;28;9534;-76
2021/10/17 05:07:12;;;;;;;;;27.33;26.67;;;;;;;;5098026;28;8894;-74
2021/10/17 05:09:37;;;;;;;;;27.00;26.67;;;;;;;;5098259;28;9479;-74
2021/10/17 05:12:03;;;;;;;;;26.67;26.67;;;;;;;;5097958;28;8862;-77
2021/10/17 05:14:28;;;;;;;;;27.75;25.50;;;;;;;;5096134;28;8837;-77
2021/10/17 05:16:53;;;;;;;;;29.00;26.00;;;;;;;;5095243;28;8832;-77
2021/10/17 05:19:19;;;;;;;;;26.67;26.00;;;;;;;;5097884;28;8778;-77
2021/10/17 05:21:44;;;;;;;;;24.25;23.00;;;;;;;;5096428;28;9672;-77
2021/10/17 05:24:09;;;;;;;;;29.25;27.75;;;;;;;;5097813;28;9006;-75
2021/10/17 05:26:35;;;;;;;;;34.50;30.25;;;;;;;;5096494;28;8825;-75
2021/10/17 05:29:00;;;;;;;;;27.75;27.00;;;;;;;;5097978;28;8785;-75
2021/10/17 05:31:25;;;;;;;;;28.67;26.67;;;;;;;;5115168;28;8884;-74
2021/10/17 05:33:51;;;;;;;;;26.25;25.75;;;;;;;;5118334;27;8884;-74
2021/10/17 05:36:16;;;;;;;;;24.00;21.33;;;;;;;;5118081;27;8827;-75
2021/10/17 05:38:41;;;;;;;;;25.67;25.67;;;;;;;;5118238;27;8799;-75
2021/10/17 05:41:07;;;;;;;;;24.75;23.00;;;;;;;;5116802;28;8846;-75
2021/10/17 05:43:33;;;;;;;;;28.25;27.75;;;;;;;;5116607;28;8876;-75
2021/10/17 05:45:58;;;;;;;;;21.25;20.75;;;;;;;;5116150;28;8826;-79
2021/10/17 05:48:24;;;;;;;;;27.50;25.25;;;;;;;;5116449;28;9752;-77
2021/10/17 05:50:49;;;;;;;;;26.25;24.00;;;;;;;;5116330;28;8938;-77
2021/10/17 05:53:15;;;;;;;;;26.75;25.75;;;;;;;;5116382;28;8806;-78
2021/10/17 05:55:41;;;;;;;;;23.50;23.50;;;;;;;;5116302;28;8818;-77
2021/10/17 05:58:06;;;;;;;;;28.50;23.50;;;;;;;;5116469;28;8868;-75
2021/10/17 06:00:32;;;;;;;;;27.25;26.00;;;;;;;;5116103;28;9660;-74
2021/10/17 06:02:57;;;;;;;;;28.75;26.50;;;;;;;;5116363;28;8822;-74
2021/10/17 06:05:23;;;;;;;;;28.50;28.50;;;;;;;;5117793;27;8795;-76
2021/10/17 06:07:48;;;;;;;;;33.00;29.00;;;;;;;;5117436;27;8795;-78
2021/10/17 06:10:13;;;;;;;;;24.00;23.00;;;;;;;;5116160;28;8803;-77
2021/10/17 06:12:40;;;;;;;;;31.75;29.50;;;;;;;;5116278;28;8829;-78
2021/10/17 06:15:07;;;;;;;;;23.00;20.33;;;;;;;;5117312;27;8810;-79
2021/10/17 06:17:42;;;;;;;;;15.75;15.75;;;;;;;;5116972;27;10581;-77
2021/10/17 06:20:07;;;;;;;;;30.25;27.50;;;;;;;;5115982;28;10461;-77
2021/10/17 06:22:33;;;;;;;;;25.67;25.67;;;;;;;;5115953;28;9761;-75
2021/10/17 06:24:58;;;;;;;;;30.00;25.67;;;;;;;;5117507;27;8775;-74
2021/10/17 06:27:24;;;;;;;;;27.75;26.75;;;;;;;;5116018;28;8826;-74
2021/10/17 06:29:49;;;;;;;;;29.33;27.33;;;;;;;;5112449;27;8890;-76
2021/10/17 06:32:14;;;;;;;;;31.00;29.75;;;;;;;;5096469;28;8858;-75
2021/10/17 06:34:40;;;;;;;;;34.00;29.00;;;;;;;;5095431;28;8818;-75
2021/10/17 06:37:05;;;;;;;;;31.00;30.67;;;;;;;;5095375;28;8914;-75
2021/10/17 06:39:30;;;;;;;;;31.25;30.25;;;;;;;;5096952;28;8786;-75
2021/10/17 06:41:56;;;;;;;;;30.00;27.25;;;;;;;;5096819;28;8817;-75
2021/10/17 06:44:21;;;;;;;;;34.00;30.75;;;;;;;;5096769;28;8774;-75
2021/10/17 06:46:46;;;;;;;;;31.50;29.75;;;;;;;;5096631;28;8805;-76
2021/10/17 06:49:12;;;;;;;;;26.50;26.25;;;;;;;;5096694;28;8886;-78
2021/10/17 06:51:37;;;;;;;;;33.25;29.75;;;;;;;;5096266;28;8970;-78
2021/10/17 06:54:05;;;;;;;;;29.25;28.00;;;;;;;;5098069;28;8805;-79
2021/10/17 06:56:31;;;;;;;;;33.50;32.50;;;;;;;;5103646;28;9134;-80
2021/10/17 06:58:59;;;;;;;;;30.00;27.75;;;;;;;;5107036;28;9804;-80
2021/10/17 07:01:31;;;;;;;;;34.75;33.00;;;;;;;;5101204;28;8809;-80
2021/10/17 07:03:56;;;;;;;;;32.50;31.50;;;;;;;;5115592;28;9752;-78
2021/10/17 07:06:37;;;;;;;;;;;;;;;;;;;;;
2021/10/17 07:09:07;;;;;;;;;36.50;34.00;;;;;;;;5102029;28;36248;-76
2021/10/17 07:11:33;;;;;;;;;31.50;31.25;;;;;;;;5097417;28;9901;-76
2021/10/17 07:13:58;;;;;;;;;32.50;29.75;;;;;;;;5094713;28;10572;-76
2021/10/17 07:16:23;;;;;;;;;34.00;31.75;;;;;;;;5096149;28;8836;-77
2021/10/17 07:18:49;;;;;;;;;35.75;32.50;;;;;;;;5096278;28;8798;-76
2021/10/17 07:21:14;;;;;;;;;34.75;32.00;;;;;;;;5096222;28;8825;-77
2021/10/17 07:23:39;;;;;;;;;34.50;33.00;;;;;;;;5096195;28;8818;-76
2021/10/17 07:26:04;;;;;;;;;35.25;31.50;;;;;;;;5096234;28;8785;-76
2021/10/17 07:28:30;;;;;;;;;34.25;29.25;;;;;;;;5096088;28;8793;-79
2021/10/17 07:30:55;;;;;;;;;33.75;32.00;;;;;;;;5109283;28;8923;-79
2021/10/17 07:33:20;;;;;;;;;35.75;32.00;;;;;;;;5116451;27;8783;-80
2021/10/17 07:35:45;;;;;;;;;34.50;31.75;;;;;;;;5116402;28;8809;-80
2021/10/17 07:38:11;;;;;;;;;37.50;34.75;;;;;;;;5114956;28;8799;-80
2021/10/17 07:40:36;;;;;;;;;34.25;32.25;;;;;;;;5117757;27;8891;-80
2021/10/17 07:43:28;;;;;;;;;38.25;35.25;;;;;;;;5119798;27;8806;-80
2021/10/17 07:45:53;;;;;;;;;36.00;34.00;;;;;;;;5118004;28;8791;-76
2021/10/17 07:48:18;;;;;;;;;38.00;33.25;;;;;;;;5119986;27;10024;-76
2021/10/17 07:50:44;;;;;;;;;37.50;35.00;;;;;;;;5118314;28;8858;-76
2021/10/17 07:53:09;;;;;;;;;39.25;34.50;;;;;;;;5119707;27;8795;-78
2021/10/17 07:55:34;;;;;;;;;38.25;33.00;;;;;;;;5119907;27;8833;-76
2021/10/17 07:57:59;;;;;;;;;42.75;36.75;;;;;;;;5118425;28;8916;-75
2021/10/17 08:00:26;;;;;;;;;47.50;41.25;;;;;;;;5117970;28;8849;-76
2021/10/17 08:02:53;;;;;;;;;49.25;41.00;;;;;;;;5119214;27;8786;-76
2021/10/17 08:05:19;;;;;;;;;49.75;41.25;;;;;;;;5117827;28;10374;-76
2021/10/17 08:07:44;;;;;;;;;38.75;36.00;;;;;;;;5119271;27;10367;-76
2021/10/17 08:10:10;;;;;;;;;46.00;38.25;;;;;;;;5119351;27;8822;-76
2021/10/17 08:12:36;;;;;;;;;43.50;37.00;;;;;;;;5117996;28;8850;-76
2021/10/17 08:15:02;;;;;;;;;49.75;41.50;;;;;;;;5119111;27;10358;-75
2021/10/17 08:17:27;;;;;;;;;43.50;38.00;;;;;;;;5118059;28;11061;-76
2021/10/17 08:19:52;;;;;;;;;44.25;38.00;;;;;;;;5118013;28;8888;-75
2021/10/17 08:22:21;;;;;;;;;45.50;38.25;;;;;;;;5117890;28;8798;-75
2021/10/17 08:24:47;;;;;;;;;44.75;38.25;;;;;;;;5117955;28;8814;-76
2021/10/17 08:27:12;;;;;;;;;42.75;37.75;;;;;;;;5119293;27;10053;-76
2021/10/17 08:29:37;;;;;;;;;47.00;39.75;;;;;;;;5114986;28;8841;-75
2021/10/17 08:32:03;;;;;;;;;46.75;38.25;;;;;;;;5098441;28;8813;-75
2021/10/17 08:34:28;;;;;;;;;50.25;41.75;;;;;;;;5098749;28;8793;-75
2021/10/17 08:36:53;;;;;;;;;49.00;41.00;;;;;;;;5098649;28;9541;-76
2021/10/17 08:39:18;;;;;;;;;49.75;41.50;;;;;;;;5098848;28;8777;-75
2021/10/17 08:41:44;;;;;;;;;50.75;42.00;;;;;;;;5098579;28;8824;-75
2021/10/17 08:44:11;;;;;;;;;48.25;39.50;;;;;;;;5098796;28;8761;-75
2021/10/17 08:46:37;;;;;;;;;49.25;40.75;;;;;;;;5098257;28;10229;-75
2021/10/17 08:49:03;;;;;;;;;48.00;40.50;;;;;;;;5098723;28;10067;-75
2021/10/17 08:51:28;;;;;;;;;46.00;39.50;;;;;;;;5097949;28;9888;-76
2021/10/17 08:53:53;;;;;;;;;49.25;40.25;;;;;;;;5098470;28;8918;-75
2021/10/17 08:56:19;;;;;;;;;43.75;37.50;;;;;;;;5098469;28;8821;-76
2021/10/17 08:58:44;;;;;;;;;48.00;38.25;;;;;;;;5098410;28;8782;-75
2021/10/17 09:01:16;;;;;;;;;37.50;34.25;;;;;;;;5096873;28;9438;-75
2021/10/17 09:03:41;;;;;;;;;30.67;30.00;;;;;;;;5098528;28;8762;-75
2021/10/17 09:06:14;;;;;;;;;31.00;25.67;;;;;;;;5097033;28;9445;-75
2021/10/17 09:08:39;;;;;;;;;23.33;21.33;;;;;;;;5098135;28;8778;-76
2021/10/17 09:11:04;;;;;;;;;23.33;20.67;;;;;;;;5098234;28;9233;-75
2021/10/17 09:13:29;;;;;;;;;22.33;22.00;;;;;;;;5079737;28;8813;-75
2021/10/17 09:15:55;;;;;;;;;22.00;19.33;;;;;;;;5096432;28;8836;-74
2021/10/17 09:18:21;;;;;;;;;19.00;18.00;;;;;;;;5098273;28;8879;-75
2021/10/17 09:20:46;;;;;;;;;18.00;17.33;;;;;;;;5098208;28;8774;-76
2021/10/17 09:23:16;;;;;;;;;25.00;24.00;;;;;;;;5096595;28;8890;-75
2021/10/17 09:25:42;;;;;;;;;25.00;21.67;;;;;;;;5096614;28;9711;-75
2021/10/17 09:28:17;;;;;;;;;24.67;23.33;;;;;;;;5097978;28;8982;-75
2021/10/17 09:30:42;;;;;;;;;22.33;22.33;;;;;;;;5107876;28;8829;-75
2021/10/17 09:33:14;;;;;;;;;19.00;19.00;;;;;;;;5118263;27;8955;-75
2021/10/17 09:35:39;;;;;;;;;26.00;20.67;;;;;;;;5118612;27;8810;-75
2021/10/17 09:38:04;;;;;;;;;25.00;22.67;;;;;;;;5118160;27;8954;-75
2021/10/17 09:40:32;;;;;;;;;23.67;21.33;;;;;;;;5118288;27;8791;-75
2021/10/17 09:43:06;;;;;;;;;20.00;20.00;;;;;;;;5118193;27;8764;-75
2021/10/17 09:45:31;;;;;;;;;22.33;22.33;;;;;;;;5116427;28;9965;-75
2021/10/17 09:47:56;;;;;;;;;22.00;22.00;;;;;;;;5118086;27;8974;-75
2021/10/17 09:50:21;;;;;;;;;21.67;20.00;;;;;;;;5117865;27;8888;-75
2021/10/17 09:52:53;;;;;;;;;19.00;19.00;;;;;;;;5117868;27;8799;-75
2021/10/17 09:55:18;;;;;;;;;16.75;16.75;;;;;;;;5117943;27;8818;-75
2021/10/17 09:57:43;;;;;;;;;17.67;16.00;;;;;;;;5115982;28;8822;-74
2021/10/17 10:00:09;;;;;;;;;16.33;16.33;;;;;;;;5117855;27;8988;-75
2021/10/17 10:02:34;;;;;;;;;17.33;17.33;;;;;;;;5117153;27;8925;-75
2021/10/17 10:04:59;;;;;;;;;17.00;15.67;;;;;;;;5117681;27;8825;-76
2021/10/17 10:07:25;;;;;;;;;14.00;14.00;;;;;;;;5117952;27;8795;-75
2021/10/17 10:09:53;;;;;;;;;14.67;13.00;;;;;;;;5117812;27;8875;-76
2021/10/17 10:12:19;;;;;;;;;19.00;16.00;;;;;;;;5117549;27;8811;-77
2021/10/17 10:14:47;;;;;;;;;16.67;15.33;;;;;;;;5117505;27;8787;-76
2021/10/17 10:17:14;;;;;;;;;15.50;15.00;;;;;;;;5117422;28;11410;-80
2021/10/17 10:19:40;;;;;;;;;14.25;14.25;;;;;;;;5117505;27;8821;-79
2021/10/17 10:22:05;;;;;;;;;17.67;16.00;;;;;;;;5117349;27;8803;-80
2021/10/17 10:24:59;;;;;;;;;13.00;13.00;;;;;;;;5117388;27;8822;-80
2021/10/17 10:27:31;;;;;;;;;14.25;13.00;;;;;;;;5111702;28;8775;-79
2021/10/17 10:30:15;;;;;;;;;14.50;13.50;;;;;;;;5111525;28;8794;-77
2021/10/17 10:32:40;;;;;;;;;12.50;12.00;;;;;;;;5095287;28;8981;-78
2021/10/17 10:35:06;;;;;;;;;15.67;15.00;;;;;;;;5096863;28;8999;-77
2021/10/17 10:37:45;;;;;;;;;12.25;12.25;;;;;;;;5096571;28;8790;-77
2021/10/17 10:40:10;;;;;;;;;14.25;14.00;;;;;;;;5096878;28;8817;-77
2021/10/17 10:42:47;;;;;;;;;12.67;12.67;;;;;;;;5095506;28;8809;-77
2021/10/17 10:45:22;;;;;;;;;12.25;11.25;;;;;;;;5096470;28;8734;-78
2021/10/17 10:47:47;;;;;;;;;12.50;12.25;;;;;;;;5095321;28;8730;-82
2021/10/17 10:50:13;;;;;;;;;13.67;12.33;;;;;;;;5096492;28;8826;-80
2021/10/17 10:52:42;;;;;;;;;12.00;12.00;;;;;;;;5096343;28;8822;-81
2021/10/17 10:55:08;;;;;;;;;14.25;13.25;;;;;;;;5096561;28;8774;-82
2021/10/17 10:57:40;;;;;;;;;13.00;12.75;;;;;;;;5096573;28;8781;-80
2021/10/17 11:00:13;;;;;;;;;13.25;13.25;;;;;;;;5095016;28;8958;-80
2021/10/17 11:02:40;;;;;;;;;14.00;13.00;;;;;;;;5096549;28;8730;-77
2021/10/17 11:05:07;;;;;;;;;12.50;12.50;;;;;;;;5095184;28;8820;-77
2021/10/17 11:07:50;;;;;;;;;14.75;14.25;;;;;;;;5094853;28;8790;-77
2021/10/17 11:10:21;;;;;;;;;12.50;11.75;;;;;;;;5096489;28;8774;-79
2021/10/17 11:12:48;;;;;;;;;14.25;12.75;;;;;;;;5096549;28;8790;-77
2021/10/17 11:15:14;;;;;;;;;14.00;14.00;;;;;;;;5096866;28;8808;-77
2021/10/17 11:17:51;;;;;;;;;13.50;12.50;;;;;;;;5098609;28;8806;-79
2021/10/17 11:20:17;;;;;;;;;15.00;12.50;;;;;;;;5099876;28;8820;-79
2021/10/17 11:22:43;;;;;;;;;13.75;13.75;;;;;;;;5099876;28;8819;-77
2021/10/17 11:25:12;;;;;;;;;15.33;15.00;;;;;;;;5099945;28;8794;-79
2021/10/17 11:27:37;;;;;;;;;15.25;12.50;;;;;;;;5098348;28;8813;-78
2021/10/17 11:30:05;;;;;;;;;11.67;11.00;;;;;;;;5104566;28;8841;-76
2021/10/17 11:32:32;;;;;;;;;14.75;13.00;;;;;;;;5120105;27;8787;-78
2021/10/17 11:34:57;;;;;;;;;13.50;13.00;;;;;;;;5118936;28;8992;-78
2021/10/17 11:37:23;;;;;;;;;12.00;11.67;;;;;;;;5118619;28;8795;-83
2021/10/17 11:39:52;;;;;;;;;13.00;13.00;;;;;;;;5120123;27;8782;-83
2021/10/17 11:42:18;;;;;;;;;12.00;12.00;;;;;;;;5119778;27;8731;-81
2021/10/17 11:44:43;;;;;;;;;11.67;11.67;;;;;;;;5119881;27;8850;-82
2021/10/17 11:47:08;;;;;;;;;12.00;12.00;;;;;;;;5119965;27;8791;-82
2021/10/17 11:49:34;;;;;;;;;12.00;11.33;;;;;;;;5120098;27;8827;-81
2021/10/17 11:52:06;;;;;;;;;13.33;13.00;;;;;;;;5119500;28;8838;-78
2021/10/17 11:54:41;;;;;;;;;13.75;12.50;;;;;;;;5119704;27;8810;-78
2021/10/17 11:57:06;;;;;;;;;10.00;10.00;;;;;;;;5118532;28;8803;-83
2021/10/17 11:59:31;;;;;;;;;10.00;10.00;;;;;;;;5118301;28;8829;-82
2021/10/17 12:01:57;;;;;;;;;12.33;12.33;;;;;;;;5118209;28;8864;-82
2021/10/17 12:04:39;;;;;;;;;11.00;11.00;;;;;;;;5119730;27;8791;-81
2021/10/17 12:07:04;;;;;;;;;10.25;10.00;;;;;;;;5119604;27;8880;-83
2021/10/17 12:09:29;;;;;;;;;11.00;8.00;;;;;;;;5119689;27;8791;-83
2021/10/17 12:11:58;;;;;;;;;11.33;11.00;;;;;;;;5119617;27;9638;-80
2021/10/17 12:14:27;;;;;;;;;10.00;10.00;;;;;;;;5117928;28;8899;-76
2021/10/17 12:16:55;;;;;;;;;11.25;10.50;;;;;;;;5118060;28;8864;-75
2021/10/17 12:19:27;;;;;;;;;11.50;11.50;;;;;;;;5118176;28;8800;-78
2021/10/17 12:21:52;;;;;;;;;9.00;9.00;;;;;;;;5119451;27;8772;-77
2021/10/17 12:24:18;;;;;;;;;10.33;10.33;;;;;;;;5119476;27;8867;-76
2021/10/17 12:26:51;;;;;;;;;8.25;8.25;;;;;;;;5117611;27;8775;-77
2021/10/17 12:29:18;;;;;;;;;7.50;7.50;;;;;;;;5117831;28;8817;-77
2021/10/17 12:31:44;;;;;;;;;6.00;6.00;;;;;;;;5076773;28;8823;-77
2021/10/17 12:34:10;;;;;;;;;7.00;7.00;;;;;;;;5078675;28;9727;-77
2021/10/17 12:36:36;;;;;;;;;6.00;6.00;;;;;;;;5078329;28;8769;-77
2021/10/17 12:39:03;;;;;;;;;9.00;8.50;;;;;;;;5078439;28;10412;-78
2021/10/17 12:41:29;;;;;;;;;8.50;8.50;;;;;;;;5078427;28;8777;-76
2021/10/17 12:43:58;;;;;;;;;8.67;8.33;;;;;;;;5093759;28;8808;-80
2021/10/17 12:46:23;;;;;;;;;10.00;8.75;;;;;;;;5078163;28;8760;-79
2021/10/17 12:48:52;;;;;;;;;8.00;8.00;;;;;;;;5078299;28;8800;-80
2021/10/17 12:51:23;;;;;;;;;9.00;9.00;;;;;;;;5077946;28;9717;-80
2021/10/17 12:54:00;;;;;;;;;8.75;8.25;;;;;;;;5078184;28;9719;-79
2021/10/17 12:56:26;;;;;;;;;9.00;9.00;;;;;;;;5078240;28;8764;-76
2021/10/17 12:59:03;;;;;;;;;10.67;9.00;;;;;;;;5076687;28;9063;-77
2021/10/17 13:01:28;;;;;;;;;6.75;6.75;;;;;;;;5093385;28;11633;-76
2021/10/17 13:04:13;;;;;;;;;8.00;8.00;;;;;;;;5076805;28;8812;-77
2021/10/17 13:06:51;;;;;;;;;9.75;9.75;;;;;;;;5077919;28;8769;-76
2021/10/17 13:09:16;;;;;;;;;8.50;8.25;;;;;;;;5078021;28;8760;-77
2021/10/17 13:11:42;;;;;;;;;10.33;9.33;;;;;;;;5077851;28;8881;-76
2021/10/17 13:14:11;;;;;;;;;9.67;9.67;;;;;;;;5076192;28;8839;-76
2021/10/17 13:16:38;;;;;;;;;10.75;10.00;;;;;;;;5077608;28;8784;-76
2021/10/17 13:19:03;;;;;;;;;11.75;11.50;;;;;;;;5077839;28;8788;-84
2021/10/17 13:21:28;;;;;;;;;7.00;7.00;;;;;;;;5077710;28;8834;-80
2021/10/17 13:23:54;;;;;;;;;8.67;8.67;;;;;;;;5079219;28;8812;-85
2021/10/17 13:26:19;;;;;;;;;8.33;8.33;;;;;;;;5078052;28;8874;-86
2021/10/17 13:28:44;;;;;;;;;7.33;7.33;;;;;;;;5076877;28;8862;-86
2021/10/17 13:31:10;;;;;;;;;8.00;8.00;;;;;;;;5109156;28;8907;-86
2021/10/17 13:33:35;;;;;;;;;7.67;7.33;;;;;;;;5118907;28;8787;-85
2021/10/17 13:36:00;;;;;;;;;8.33;8.33;;;;;;;;5119343;27;8830;-89
2021/10/17 13:38:25;;;;;;;;;4.67;4.67;;;;;;;;5117556;27;8795;-83
2021/10/17 13:40:52;;;;;;;;;7.33;7.33;;;;;;;;5118267;27;8896;-83
2021/10/17 13:43:17;;;;;;;;;5.75;5.75;;;;;;;;5118194;27;8779;-82
2021/10/17 13:45:43;;;;;;;;;5.00;5.00;;;;;;;;5117914;27;8867;-82
2021/10/17 13:48:08;;;;;;;;;7.50;7.50;;;;;;;;5116736;28;8855;-82
2021/10/17 13:50:34;;;;;;;;;5.67;5.67;;;;;;;;5116589;28;8838;-80
2021/10/17 13:52:59;;;;;;;;;6.33;6.33;;;;;;;;5117871;27;8803;-80
2021/10/17 13:55:24;;;;;;;;;5.00;5.00;;;;;;;;5118108;27;8839;-78
2021/10/17 13:57:50;;;;;;;;;8.00;7.67;;;;;;;;5118010;27;8775;-77
2021/10/17 14:00:18;;;;;;;;;6.00;6.00;;;;;;;;5117756;27;8783;-79
2021/10/17 14:02:43;;;;;;;;;8.50;6.25;;;;;;;;5117817;27;8840;-80
2021/10/17 14:05:09;;;;;;;;;6.33;6.33;;;;;;;;5117937;27;8791;-79
2021/10/17 14:07:34;;;;;;;;;9.00;7.67;;;;;;;;5116276;28;8820;-79
2021/10/17 14:09:59;;;;;;;;;4.33;3.00;;;;;;;;5103727;27;8908;-79
2021/10/17 14:12:25;;;;;;;;;6.00;6.00;;;;;;;;5096782;28;8848;-80
2021/10/17 14:14:50;;;;;;;;;5.33;5.33;;;;;;;;5096173;28;8809;-79
2021/10/17 14:17:15;;;;;;;;;8.00;8.00;;;;;;;;5097037;28;8810;-77
2021/10/17 14:19:40;;;;;;;;;7.00;7.00;;;;;;;;5096838;28;9525;-79
2021/10/17 14:22:08;;;;;;;;;5.00;5.00;;;;;;;;5095494;28;8940;-79
2021/10/17 14:24:34;;;;;;;;;5.75;5.75;;;;;;;;5095627;28;8994;-79
2021/10/17 14:26:59;;;;;;;;;6.33;6.00;;;;;;;;5096972;28;8794;-79
2021/10/17 14:29:24;;;;;;;;;5.33;5.33;;;;;;;;5097796;28;8855;-82
2021/10/17 14:31:49;;;;;;;;;6.33;6.33;;;;;;;;5115439;28;8847;-81